createdAt,value
2019-03-27T00:03:11.749Z,-2.63
2019-03-27T00:05:38.072Z,-2.61
2019-03-27T00:08:04.337Z,-2.52
2019-03-27T00:10:30.580Z,-2.51
2019-03-27T00:12:56.846Z,-2.50
2019-03-27T00:15:23.080Z,-2.48
2019-03-27T00:17:49.334Z,-2.48
2019-03-27T00:20:15.589Z,-2.45
2019-03-27T00:22:41.823Z,-2.47
2019-03-27T00:28:02.424Z,-2.40
2019-03-27T00:30:28.770Z,-2.38
2019-03-27T00:32:55.013Z,-2.38
2019-03-27T00:35:21.371Z,-2.36
2019-03-27T00:37:47.617Z,-2.34
2019-03-27T00:40:13.973Z,-2.31
2019-03-27T00:42:40.215Z,-2.28
2019-03-27T00:45:47.756Z,-2.19
2019-03-27T00:48:13.991Z,-2.15
2019-03-27T00:50:40.241Z,-2.12
2019-03-27T00:53:06.478Z,-2.07
2019-03-27T00:55:32.739Z,-2.05
2019-03-27T00:57:59.210Z,-2.01
2019-03-27T01:01:06.757Z,-1.98
2019-03-27T01:03:32.991Z,-1.93
2019-03-27T01:05:59.241Z,-1.94
2019-03-27T01:08:25.472Z,-1.95
2019-03-27T01:10:51.821Z,-1.83
2019-03-27T01:13:18.080Z,-1.83
2019-03-27T01:15:44.351Z,-1.82
2019-03-27T01:18:10.587Z,-1.79
2019-03-27T01:20:36.927Z,-1.78
2019-03-27T01:23:03.171Z,-1.74
2019-03-27T01:25:29.426Z,-1.71
2019-03-27T01:27:55.679Z,-1.69
2019-03-27T01:30:21.921Z,-1.64
2019-03-27T01:32:48.152Z,-1.65
2019-03-27T01:35:14.417Z,-1.63
2019-03-27T01:37:40.655Z,-1.60
2019-03-27T01:40:28.446Z,-1.53
2019-03-27T01:42:54.694Z,-1.48
2019-03-27T01:45:20.949Z,-1.49
2019-03-27T01:47:47.178Z,-1.50
2019-03-27T01:50:13.418Z,-1.53
2019-03-27T01:52:39.670Z,-1.53
2019-03-27T01:55:06.015Z,-1.50
2019-03-27T01:57:32.252Z,-1.47
2019-03-27T01:59:58.494Z,-1.47
2019-03-27T02:02:24.732Z,-1.46
2019-03-27T02:04:50.955Z,-1.46
2019-03-27T02:07:17.243Z,-1.44
2019-03-27T02:09:43.488Z,-1.41
2019-03-27T02:12:09.733Z,-1.33
2019-03-27T02:14:35.968Z,-1.28
2019-03-27T02:17:02.229Z,-1.26
2019-03-27T02:22:18.838Z,-1.24
2019-03-27T02:24:45.063Z,-1.22
2019-03-27T02:27:11.315Z,-1.17
2019-03-27T02:29:37.598Z,-1.14
2019-03-27T02:32:03.843Z,-1.12
2019-03-27T02:34:30.082Z,-1.41
2019-03-27T02:36:56.349Z,-1.07
2019-03-27T02:39:22.577Z,-1.07
2019-03-27T02:41:48.825Z,-1.05
2019-03-27T02:44:15.070Z,-1.00
2019-03-27T02:46:41.301Z,-0.97
2019-03-27T02:49:07.555Z,-0.96
2019-03-27T02:51:33.792Z,-0.93
2019-03-27T02:54:00.046Z,-0.91
2019-03-27T02:56:26.264Z,-0.89
2019-03-27T02:58:52.510Z,-0.88
2019-03-27T03:01:18.752Z,-0.88
2019-03-27T03:03:44.989Z,-0.85
2019-03-27T03:06:11.229Z,-0.83
2019-03-27T03:08:37.474Z,-0.80
2019-03-27T03:11:03.918Z,-0.79
2019-03-27T03:13:30.160Z,-0.78
2019-03-27T03:15:56.417Z,-0.80
2019-03-27T03:18:22.664Z,-0.79
2019-03-27T03:20:48.910Z,-0.76
2019-03-27T03:23:15.168Z,-0.74
2019-03-27T03:25:41.403Z,-0.72
2019-03-27T03:28:07.658Z,-0.70
2019-03-27T03:30:33.900Z,-0.69
2019-03-27T03:33:00.146Z,-0.67
2019-03-27T03:35:26.387Z,-0.65
2019-03-27T03:37:52.620Z,-0.85
2019-03-27T03:40:18.875Z,-0.64
2019-03-27T03:42:45.113Z,-0.63
2019-03-27T03:48:07.938Z,-0.60
2019-03-27T03:51:15.463Z,-0.59
2019-03-27T03:53:54.428Z,-0.58
2019-03-27T04:08:19.860Z,-0.55
2019-03-27T04:10:46.119Z,-0.54
2019-03-27T04:13:12.350Z,-0.52
2019-03-27T04:15:38.709Z,-0.52
2019-03-27T04:18:04.952Z,-0.52
2019-03-27T04:20:31.200Z,-0.51
2019-03-27T04:22:57.459Z,-0.50
2019-03-27T04:25:23.740Z,-0.48
2019-03-27T04:27:49.967Z,-0.46
2019-03-27T04:30:16.188Z,-0.46
2019-03-27T04:32:42.441Z,-0.44
2019-03-27T04:35:08.679Z,-0.44
2019-03-27T04:37:34.930Z,-0.42
2019-03-27T04:40:01.491Z,-0.42
2019-03-27T04:42:27.767Z,-0.40
2019-03-27T04:44:53.973Z,-0.38
2019-03-27T04:47:31.545Z,-0.37
2019-03-27T04:49:48.353Z,-0.35
2019-03-27T04:52:14.585Z,-0.35
2019-03-27T04:54:40.855Z,-0.34
2019-03-27T04:57:07.112Z,-0.33
2019-03-27T04:59:33.381Z,-0.30
2019-03-27T05:01:59.611Z,-0.27
2019-03-27T05:07:03.271Z,-0.23
2019-03-27T05:09:29.520Z,-0.21
2019-03-27T05:11:55.743Z,-0.21
2019-03-27T05:14:21.989Z,-0.19
2019-03-27T05:16:48.331Z,-0.15
2019-03-27T05:19:14.620Z,-0.13
2019-03-27T05:21:40.853Z,-0.08
2019-03-27T05:24:07.132Z,-0.04
2019-03-27T05:26:33.370Z,-0.02
2019-03-27T05:29:19.365Z,0.03
2019-03-27T05:34:39.694Z,0.12
2019-03-27T05:37:05.965Z,0.14
2019-03-27T05:39:32.229Z,0.15
2019-03-27T05:41:58.476Z,0.20
2019-03-27T05:44:24.733Z,0.24
2019-03-27T05:46:50.981Z,0.26
2019-03-27T05:49:17.207Z,0.31
2019-03-27T05:51:43.459Z,0.33
2019-03-27T05:54:09.697Z,0.32
2019-03-27T05:56:35.940Z,0.34
2019-03-27T05:59:02.175Z,0.41
2019-03-27T06:01:28.519Z,0.43
2019-03-27T06:03:54.890Z,0.49
2019-03-27T06:06:21.150Z,0.56
2019-03-27T06:08:47.376Z,0.62
2019-03-27T06:11:13.628Z,0.67
2019-03-27T06:13:39.904Z,0.68
2019-03-27T06:16:06.207Z,0.73
2019-03-27T06:18:32.481Z,0.80
2019-03-27T06:20:58.713Z,0.82
2019-03-27T06:23:24.953Z,0.88
2019-03-27T06:25:51.208Z,0.92
2019-03-27T06:28:17.464Z,0.99
2019-03-27T06:30:43.697Z,1.09
2019-03-27T06:33:09.938Z,1.22
2019-03-27T06:35:36.189Z,1.26
2019-03-27T06:38:02.439Z,1.34
2019-03-27T06:40:28.669Z,1.37
2019-03-27T06:42:54.916Z,1.51
2019-03-27T06:45:21.153Z,1.61
2019-03-27T06:47:47.413Z,1.64
2019-03-27T06:53:21.109Z,1.71
2019-03-27T06:55:47.346Z,1.76
2019-03-27T06:58:13.600Z,1.93
2019-03-27T07:00:39.832Z,1.94
2019-03-27T07:03:47.690Z,1.81
2019-03-27T07:06:13.931Z,1.78
2019-03-27T07:08:40.184Z,1.80
2019-03-27T07:11:06.421Z,1.75
2019-03-27T07:13:32.678Z,1.87
2019-03-27T07:15:58.935Z,2.14
2019-03-27T07:18:25.204Z,2.26
2019-03-27T07:20:51.510Z,2.48
2019-03-27T07:23:17.821Z,2.49
2019-03-27T07:25:44.059Z,2.53
2019-03-27T07:28:10.309Z,2.48
2019-03-27T07:30:36.562Z,2.53
2019-03-27T07:33:02.920Z,2.69
2019-03-27T07:35:29.156Z,2.71
2019-03-27T07:37:55.422Z,2.76
2019-03-27T07:40:21.656Z,2.89
2019-03-27T07:42:47.898Z,2.93
2019-03-27T07:45:14.148Z,2.80
2019-03-27T07:47:40.415Z,2.76
2019-03-27T07:50:06.872Z,2.68
2019-03-27T07:52:33.122Z,2.89
2019-03-27T07:54:59.447Z,2.78
2019-03-27T07:57:25.723Z,2.72
2019-03-27T07:59:51.973Z,2.70
2019-03-27T08:02:18.206Z,2.75
2019-03-27T08:04:44.451Z,2.69
2019-03-27T08:07:10.687Z,2.81
2019-03-27T08:09:36.934Z,3.78
2019-03-27T08:12:03.358Z,4.61
2019-03-27T08:14:29.747Z,5.18
2019-03-27T08:16:55.989Z,5.24
2019-03-27T08:19:22.254Z,5.74
2019-03-27T08:21:48.499Z,5.98
2019-03-27T08:24:14.759Z,6.55
2019-03-27T08:26:41.022Z,6.53
2019-03-27T08:29:07.247Z,6.66
2019-03-27T08:31:33.499Z,6.54
2019-03-27T08:33:59.739Z,6.76
2019-03-27T08:36:25.984Z,6.81
2019-03-27T08:38:52.231Z,7.29
2019-03-27T08:41:18.487Z,7.47
2019-03-27T08:43:44.738Z,6.96
2019-03-27T08:46:10.961Z,7.91
2019-03-27T08:48:39.208Z,8.26
2019-03-27T08:51:05.353Z,8.35
2019-03-27T08:53:31.587Z,8.39
2019-03-27T08:55:57.844Z,8.72
2019-03-27T08:58:24.090Z,8.99
2019-03-27T09:03:50.148Z,8.71
2019-03-27T09:06:16.407Z,8.60
2019-03-27T09:08:42.648Z,8.13
2019-03-27T09:11:08.906Z,8.47
2019-03-27T09:13:35.149Z,8.73
2019-03-27T09:16:42.972Z,9.14
2019-03-27T09:19:09.240Z,9.38
2019-03-27T09:21:35.493Z,9.54
2019-03-27T09:24:01.733Z,9.51
2019-03-27T09:26:27.981Z,9.63
2019-03-27T09:28:54.221Z,9.59
2019-03-27T09:31:20.485Z,9.83
2019-03-27T09:33:46.727Z,10.26
2019-03-27T09:36:12.991Z,10.04
2019-03-27T09:38:39.218Z,9.97
2019-03-27T09:41:05.474Z,10.38
2019-03-27T09:43:31.751Z,10.53
2019-03-27T09:45:57.982Z,10.43
2019-03-27T09:48:24.243Z,10.55
2019-03-27T09:50:50.480Z,10.65
2019-03-27T09:53:16.741Z,10.37
2019-03-27T09:55:42.988Z,10.38
2019-03-27T09:58:09.243Z,10.73
2019-03-27T10:00:55.339Z,10.79
2019-03-27T10:03:21.577Z,10.76
2019-03-27T10:05:47.806Z,10.81
2019-03-27T10:08:14.057Z,11.01
2019-03-27T10:11:00.036Z,11.03
2019-03-27T10:13:26.291Z,10.94
2019-03-27T10:15:52.528Z,10.56
2019-03-27T10:18:18.983Z,10.50
2019-03-27T10:20:45.217Z,10.41
2019-03-27T10:23:11.452Z,10.30
2019-03-27T10:25:37.681Z,10.54
2019-03-27T10:28:03.931Z,11.08
2019-03-27T10:30:30.169Z,11.47
2019-03-27T10:32:56.439Z,11.39
2019-03-27T10:35:22.682Z,11.67
2019-03-27T10:37:48.930Z,11.52
2019-03-27T10:40:15.165Z,11.09
2019-03-27T10:42:41.419Z,11.01
2019-03-27T10:45:48.980Z,11.27
2019-03-27T10:48:15.230Z,11.06
2019-03-27T10:50:41.457Z,11.11
2019-03-27T10:53:07.702Z,11.01
2019-03-27T10:55:34.617Z,10.93
2019-03-27T10:58:02.098Z,11.01
2019-03-27T11:00:28.345Z,10.90
2019-03-27T11:02:54.586Z,10.73
2019-03-27T11:05:20.841Z,10.88
2019-03-27T11:07:47.069Z,10.85
2019-03-27T11:10:13.530Z,10.90
2019-03-27T11:12:39.760Z,11.26
2019-03-27T11:15:47.302Z,10.93
2019-03-27T11:18:13.530Z,10.51
2019-03-27T11:20:39.771Z,10.86
2019-03-27T11:23:06.000Z,10.72
2019-03-27T11:25:33.343Z,10.65
2019-03-27T11:28:00.386Z,10.65
2019-03-27T11:31:07.937Z,10.63
2019-03-27T11:33:34.199Z,10.41
2019-03-27T11:36:00.437Z,10.02
2019-03-27T11:41:40.342Z,10.20
2019-03-27T11:44:06.575Z,9.93
2019-03-27T11:46:32.826Z,9.82
2019-03-27T11:48:59.054Z,9.93
2019-03-27T11:51:25.296Z,10.03
2019-03-27T11:53:51.524Z,9.91
2019-03-27T11:56:17.773Z,9.67
2019-03-27T11:58:44.029Z,9.68
2019-03-27T12:01:10.268Z,9.65
2019-03-27T12:03:36.498Z,9.55
2019-03-27T12:06:02.849Z,9.62
2019-03-27T12:08:29.103Z,10.10
2019-03-27T12:10:55.379Z,10.29
2019-03-27T12:13:21.615Z,10.36
2019-03-27T12:15:47.864Z,10.36
2019-03-27T12:21:21.559Z,10.29
2019-03-27T12:23:47.795Z,10.17
2019-03-27T12:26:14.036Z,10.15
2019-03-27T12:28:40.272Z,10.19
2019-03-27T12:31:06.551Z,10.40
2019-03-27T12:33:32.760Z,10.11
2019-03-27T12:35:58.995Z,9.91
2019-03-27T12:38:25.248Z,9.66
2019-03-27T12:40:51.484Z,9.79
2019-03-27T12:43:17.737Z,9.86
2019-03-27T12:45:43.987Z,9.99
2019-03-27T12:48:10.231Z,10.00
2019-03-27T12:50:36.571Z,10.03
2019-03-27T12:55:59.975Z,9.80
2019-03-27T12:58:26.584Z,9.84
2019-03-27T13:00:52.854Z,9.86
2019-03-27T13:03:19.110Z,9.80
2019-03-27T13:05:45.358Z,9.38
2019-03-27T13:08:11.621Z,9.15
2019-03-27T13:10:37.875Z,9.06
2019-03-27T13:13:04.137Z,8.78
2019-03-27T13:15:30.729Z,8.74
2019-03-27T13:17:56.974Z,8.63
2019-03-27T13:20:23.218Z,8.55
2019-03-27T13:22:49.472Z,8.52
2019-03-27T13:25:16.180Z,8.58
2019-03-27T13:27:42.418Z,8.54
2019-03-27T13:32:58.763Z,8.60
2019-03-27T13:35:25.006Z,8.63
2019-03-27T13:37:51.263Z,8.55
2019-03-27T13:40:58.793Z,8.47
2019-03-27T13:43:25.042Z,8.25
2019-03-27T13:45:51.272Z,8.08
2019-03-27T13:48:17.538Z,7.85
2019-03-27T13:50:43.772Z,7.65
2019-03-27T13:53:10.023Z,7.52
2019-03-27T13:55:36.252Z,7.51
2019-03-27T13:58:02.471Z,7.49
2019-03-27T14:00:28.717Z,7.41
2019-03-27T14:02:54.945Z,7.38
2019-03-27T14:05:21.187Z,7.31
2019-03-27T14:07:47.425Z,7.39
2019-03-27T14:10:14.010Z,7.43
2019-03-27T14:12:40.241Z,7.32
2019-03-27T14:15:26.249Z,7.21
2019-03-27T14:17:52.495Z,7.09
2019-03-27T14:23:12.839Z,6.62
2019-03-27T14:25:39.100Z,6.68
2019-03-27T14:28:05.333Z,6.63
2019-03-27T14:31:11.081Z,6.54
2019-03-27T14:33:37.338Z,6.46
2019-03-27T14:36:03.585Z,6.40
2019-03-27T14:38:29.834Z,6.29
2019-03-27T14:40:56.094Z,6.21
2019-03-27T14:43:22.339Z,6.14
2019-03-27T14:46:29.953Z,6.17
2019-03-27T14:48:56.214Z,6.11
2019-03-27T14:51:22.464Z,6.00
2019-03-27T14:53:48.711Z,5.93
2019-03-27T14:56:14.955Z,5.88
2019-03-27T14:58:41.197Z,5.84
2019-03-27T15:01:07.445Z,5.76
2019-03-27T15:03:33.681Z,5.77
2019-03-27T15:06:19.703Z,5.60
2019-03-27T15:08:45.963Z,5.52
2019-03-27T15:11:12.210Z,5.32
2019-03-27T15:13:38.448Z,5.45
2019-03-27T15:16:04.805Z,5.35
2019-03-27T15:18:31.041Z,5.29
2019-03-27T15:20:57.293Z,5.17
2019-03-27T15:23:23.523Z,5.23
2019-03-27T15:25:49.767Z,5.16
2019-03-27T15:28:16.002Z,5.25
2019-03-27T15:30:42.245Z,5.13
2019-03-27T15:33:08.489Z,4.95
2019-03-27T15:35:34.714Z,4.91
2019-03-27T15:38:00.965Z,4.88
2019-03-27T15:41:08.503Z,4.78
2019-03-27T15:43:54.513Z,4.67
2019-03-27T15:46:20.764Z,4.71
2019-03-27T15:48:47.000Z,4.63
2019-03-27T15:51:13.259Z,4.56
2019-03-27T15:53:39.555Z,4.44
2019-03-27T15:56:05.838Z,4.47
2019-03-27T15:58:32.200Z,4.43
2019-03-27T16:00:58.424Z,4.29
2019-03-27T16:03:24.679Z,4.10
2019-03-27T16:05:50.915Z,4.04
2019-03-27T16:08:17.179Z,3.99
2019-03-27T16:10:43.414Z,3.95
2019-03-27T16:13:09.673Z,3.97
2019-03-27T16:15:37.210Z,3.91
2019-03-27T16:20:38.715Z,3.77
2019-03-27T16:23:04.967Z,3.80
2019-03-27T16:25:31.206Z,3.72
2019-03-27T16:27:57.479Z,3.68
2019-03-27T16:30:23.710Z,3.61
2019-03-27T16:32:49.954Z,3.61
2019-03-27T16:35:16.204Z,3.55
2019-03-27T16:37:42.456Z,3.42
2019-03-27T16:43:29.227Z,3.17
2019-03-27T16:45:55.467Z,3.01
2019-03-27T16:48:21.712Z,2.94
2019-03-27T16:50:47.955Z,2.83
2019-03-27T16:53:14.216Z,2.75
2019-03-27T16:55:40.454Z,2.67
2019-03-27T16:58:06.707Z,2.71
2019-03-27T17:00:32.927Z,2.60
2019-03-27T17:02:59.179Z,2.47
2019-03-27T17:05:25.434Z,2.38
2019-03-27T17:07:51.681Z,2.29
2019-03-27T17:10:17.942Z,2.19
2019-03-27T17:12:44.170Z,2.12
2019-03-27T17:15:51.726Z,2.02
2019-03-27T17:18:17.983Z,1.94
2019-03-27T17:20:44.241Z,1.85
2019-03-27T17:23:18.003Z,1.78
2019-03-27T17:25:38.647Z,1.68
2019-03-27T17:28:04.892Z,1.60
2019-03-27T17:30:32.065Z,1.54
2019-03-27T17:32:59.302Z,1.47
2019-03-27T17:35:25.550Z,1.35
2019-03-27T17:37:51.790Z,1.22
2019-03-27T17:40:18.033Z,1.16
2019-03-27T17:42:44.275Z,1.12
2019-03-27T17:45:32.358Z,1.08
2019-03-27T17:47:58.592Z,1.05
2019-03-27T17:50:24.822Z,0.97
2019-03-27T17:52:51.080Z,0.87
2019-03-27T17:55:17.343Z,0.80
2019-03-27T17:57:43.603Z,0.72
2019-03-27T18:00:51.146Z,0.61
2019-03-27T18:03:17.416Z,0.53
2019-03-27T18:05:43.716Z,0.44
2019-03-27T18:08:10.010Z,0.37
2019-03-27T18:10:36.277Z,0.32
2019-03-27T18:13:02.520Z,0.24
2019-03-27T18:15:28.793Z,0.21
2019-03-27T18:17:55.024Z,0.25
2019-03-27T18:20:21.284Z,0.39
2019-03-27T18:22:47.507Z,0.51
2019-03-27T18:25:13.875Z,0.53
2019-03-27T18:27:40.122Z,0.49
2019-03-27T18:33:02.696Z,0.31
2019-03-27T18:35:50.577Z,0.19
2019-03-27T18:38:17.240Z,0.09
2019-03-27T18:40:43.491Z,0.02
2019-03-27T18:43:09.752Z,-0.06
2019-03-27T18:45:36.003Z,-0.15
2019-03-27T18:48:02.250Z,-0.09
2019-03-27T18:50:28.501Z,-0.02
2019-03-27T18:52:54.747Z,-0.01
2019-03-27T18:55:26.629Z,-0.03
2019-03-27T18:57:59.335Z,-0.11
2019-03-27T19:06:17.242Z,-0.36
2019-03-27T19:08:43.585Z,-0.43
2019-03-27T19:11:09.872Z,-0.51
2019-03-27T19:13:36.504Z,-0.59
2019-03-27T19:16:02.737Z,-0.66
2019-03-27T19:18:28.979Z,-0.74
2019-03-27T19:20:55.286Z,-0.90
2019-03-27T19:23:21.527Z,-1.03
2019-03-27T19:25:47.777Z,-1.02
2019-03-27T19:28:33.782Z,-1.05
2019-03-27T19:31:00.028Z,-1.10
2019-03-27T19:33:26.270Z,-1.15
2019-03-27T19:35:52.563Z,-1.18
2019-03-27T19:38:18.889Z,-1.22
2019-03-27T19:40:45.116Z,-1.29
2019-03-27T19:43:11.401Z,-1.33
2019-03-27T19:45:37.643Z,-1.40
2019-03-27T19:48:03.975Z,-1.46
2019-03-27T19:50:30.522Z,-1.50
2019-03-27T19:52:56.820Z,-1.57
2019-03-27T19:55:23.120Z,-1.68
2019-03-27T19:57:49.448Z,-1.81
2019-03-27T20:00:56.935Z,-1.92
2019-03-27T20:03:23.198Z,-1.98
2019-03-27T20:05:49.429Z,-2.04
2019-03-27T20:08:15.704Z,-2.08
2019-03-27T20:10:41.965Z,-2.10
2019-03-27T20:13:08.210Z,-2.11
2019-03-27T20:15:34.437Z,-2.14
2019-03-27T20:20:48.314Z,-2.21
2019-03-27T20:23:15.637Z,-2.31
2019-03-27T20:25:42.778Z,-2.37
2019-03-27T20:28:09.019Z,-2.40
2019-03-27T20:31:16.578Z,-2.41
2019-03-27T20:33:42.855Z,-2.47
2019-03-27T20:36:09.061Z,-2.62
2019-03-27T20:38:35.285Z,-2.72
2019-03-27T20:41:01.929Z,-2.74
2019-03-27T20:43:28.138Z,-2.76
2019-03-27T20:45:54.374Z,-2.80
2019-03-27T20:48:20.607Z,-2.81
2019-03-27T20:53:32.673Z,-2.80
2019-03-27T20:55:58.905Z,-2.81
2019-03-27T20:58:25.137Z,-2.85
2019-03-27T21:00:51.378Z,-2.89
2019-03-27T21:03:17.683Z,-2.93
2019-03-27T21:05:44.095Z,-2.96
2019-03-27T21:08:10.371Z,-3.00
2019-03-27T21:10:36.701Z,-3.17
2019-03-27T21:13:24.492Z,-3.27
2019-03-27T21:16:02.778Z,-3.24
2019-03-27T21:18:28.988Z,-3.23
2019-03-27T21:21:15.101Z,-3.21
2019-03-27T21:23:41.563Z,-3.21
2019-03-27T21:26:09.671Z,-3.23
2019-03-27T21:28:35.948Z,-3.24
2019-03-27T21:31:21.961Z,-3.26
2019-03-27T21:33:48.189Z,-3.29
2019-03-27T21:36:14.810Z,-3.31
2019-03-27T21:38:41.039Z,-3.32
2019-03-27T21:41:07.287Z,-3.35
2019-03-27T21:43:33.747Z,-3.37
2019-03-27T21:45:59.997Z,-3.43
2019-03-27T21:48:28.268Z,-3.48
2019-03-27T21:51:35.831Z,-3.54
2019-03-27T21:54:02.067Z,-3.57
2019-03-27T21:56:28.311Z,-3.60
2019-03-27T21:58:54.575Z,-3.59
2019-03-27T22:01:20.824Z,-3.57
2019-03-27T22:03:47.053Z,-3.55
2019-03-27T22:06:13.723Z,-3.56
2019-03-27T22:08:53.046Z,-3.63
2019-03-27T22:11:19.298Z,-3.69
2019-03-27T22:16:58.701Z,-3.78
2019-03-27T22:19:24.931Z,-3.82
2019-03-27T22:21:51.174Z,-3.85
2019-03-27T22:24:17.602Z,-3.88
2019-03-27T22:26:43.841Z,-3.94
2019-03-27T22:29:10.074Z,-3.94
2019-03-27T22:31:36.316Z,-3.95
2019-03-27T22:34:02.564Z,-3.98
2019-03-27T22:36:28.803Z,-3.98
2019-03-27T22:38:55.107Z,-4.00
2019-03-27T22:41:21.331Z,-4.01
2019-03-27T22:43:47.601Z,-4.02
2019-03-27T22:46:13.837Z,-4.02
2019-03-27T22:48:40.067Z,-4.05
2019-03-27T22:51:06.302Z,-4.04
2019-03-27T22:53:32.546Z,-4.04
2019-03-27T22:55:58.797Z,-4.04
2019-03-27T22:58:25.031Z,-4.01
2019-03-27T23:01:32.563Z,-4.04
2019-03-27T23:03:58.815Z,-4.06
2019-03-27T23:06:25.050Z,-4.06
2019-03-27T23:08:51.314Z,-4.05
2019-03-27T23:11:17.547Z,-3.99
2019-03-27T23:13:43.807Z,-4.00
2019-03-27T23:16:10.035Z,-3.99
2019-03-27T23:18:36.275Z,-3.98
2019-03-27T23:21:02.695Z,-4.01
2019-03-27T23:23:28.936Z,-3.99
2019-03-27T23:26:03.039Z,-3.97
2019-03-27T23:28:23.314Z,-3.99
2019-03-27T23:30:49.544Z,-4.00
2019-03-27T23:33:15.771Z,-4.01
2019-03-27T23:35:42.035Z,-3.96
2019-03-27T23:38:08.296Z,-3.94
2019-03-27T23:40:34.525Z,-3.92
2019-03-27T23:43:00.767Z,-3.87
2019-03-27T23:45:27.006Z,-3.79
2019-03-27T23:47:53.239Z,-3.80
2019-03-27T23:50:19.483Z,-3.78
2019-03-27T23:52:45.703Z,-3.76
2019-03-27T23:55:11.941Z,-3.75
2019-03-27T23:57:38.184Z,-3.78
